Time;durP1;ratioP1;P1;durP2;ratioP2;P2;SDS_P1;SDS_P2;PMS_P1;PMS_P2;Temp;Humidity;BMP_temperature;BMP_pressure;BME280_temperature;BME280_humidity;BME280_pressure;Samples;Min_cycle;Max_cycle;Signal;HPM_P1;HPM_P2
2022/04/19 00:00:41;;;;;;;15.65;7.85;;;;;;;;;;5073481;28;20052;-68
2022/04/19 00:03:46;;;;;;;19.35;8.02;;;;;;;;;;5073737;28;20039;-67
2022/04/19 00:06:50;;;;;;;15.57;7.90;;;;;;;;;;5073324;28;20048;-67
2022/04/19 00:09:54;;;;;;;15.40;7.95;;;;;;;;;;5072341;28;20071;-67
2022/04/19 00:12:59;;;;;;;18.10;8.48;;;;;;;;;;5073646;28;20044;-66
2022/04/19 00:16:03;;;;;;;14.77;7.93;;;;;;;;;;5072871;28;20226;-68
2022/04/19 00:19:08;;;;;;;17.13;7.80;;;;;;;;;;5072371;28;20067;-67
2022/04/19 00:22:12;;;;;;;14.02;7.93;;;;;;;;;;5073371;28;20043;-67
2022/04/19 00:25:17;;;;;;;15.43;7.97;;;;;;;;;;5073203;28;20039;-68
2022/04/19 00:28:21;;;;;;;17.10;8.32;;;;;;;;;;5073042;28;20119;-68
2022/04/19 00:31:25;;;;;;;18.23;8.48;;;;;;;;;;5073097;28;20535;-68
2022/04/19 00:34:30;;;;;;;14.93;7.75;;;;;;;;;;5073661;28;20043;-68
2022/04/19 00:37:35;;;;;;;14.38;7.57;;;;;;;;;;5073127;28;20051;-68
2022/04/19 00:40:39;;;;;;;13.48;7.63;;;;;;;;;;5072962;28;20048;-68
2022/04/19 00:43:43;;;;;;;17.77;7.35;;;;;;;;;;5072761;28;20504;-68
2022/04/19 00:46:48;;;;;;;15.60;8.45;;;;;;;;;;5071967;28;20395;-68
2022/04/19 00:49:53;;;;;;;16.77;7.60;;;;;;;;;;5071655;28;20052;-68
2022/04/19 00:52:57;;;;;;;15.98;8.02;;;;;;;;;;5071827;28;20036;-68
2022/04/19 00:56:03;;;;;;;13.95;7.88;;;;;;;;;;5072030;28;20396;-68
2022/04/19 00:59:11;;;;;;;15.73;6.90;;;;;;;;;;5071730;28;20043;-68
2022/04/19 01:02:17;;;;;;;13.57;6.60;;;;;;;;;;5071741;28;20433;-68
2022/04/19 01:05:21;;;;;;;10.48;6.30;;;;;;;;;;5071701;28;20059;-68
2022/04/19 01:08:28;;;;;;;14.63;7.50;;;;;;;;;;5071240;28;20436;-67
2022/04/19 01:14:57;;;;;;;15.57;7.85;;;;;;;;;;5071164;28;20043;-67
2022/04/19 01:18:09;;;;;;;18.35;8.25;;;;;;;;;;5071419;28;20313;-68
2022/04/19 01:21:15;;;;;;;16.70;8.40;;;;;;;;;;5070786;28;20047;-68
2022/04/19 01:24:19;;;;;;;16.70;8.45;;;;;;;;;;5071396;28;20048;-68
2022/04/19 01:27:25;;;;;;;17.70;8.40;;;;;;;;;;5075043;28;20067;-68
2022/04/19 01:30:32;;;;;;;15.23;8.45;;;;;;;;;;5071712;28;20059;-68
2022/04/19 01:33:36;;;;;;;20.05;8.25;;;;;;;;;;5071092;28;20044;-68
2022/04/19 01:36:42;;;;;;;20.52;9.00;;;;;;;;;;5070867;28;20044;-68
2022/04/19 01:43:15;;;;;;;17.65;8.77;;;;;;;;;;5070689;28;20048;-68
2022/04/19 01:46:32;;;;;;;20.65;8.75;;;;;;;;;;5071045;28;20072;-67
2022/04/19 01:49:36;;;;;;;22.20;9.40;;;;;;;;;;5071242;28;20400;-68
2022/04/19 01:52:41;;;;;;;24.25;9.75;;;;;;;;;;5070952;28;20055;-68
2022/04/19 01:55:48;;;;;;;20.55;8.82;;;;;;;;;;5070747;28;20043;-68
2022/04/19 01:59:16;;;;;;;17.98;9.00;;;;;;;;;;5070697;28;20032;-68
2022/04/19 02:02:38;;;;;;;20.50;8.65;;;;;;;;;;5070408;28;20404;-68
2022/04/19 02:05:42;;;;;;;18.90;8.95;;;;;;;;;;5070525;28;20048;-68
2022/04/19 02:08:47;;;;;;;16.00;7.95;;;;;;;;;;5069937;28;20051;-68
2022/04/19 02:11:55;;;;;;;20.17;8.95;;;;;;;;;;5070415;28;20067;-68
2022/04/19 02:15:22;;;;;;;17.05;8.85;;;;;;;;;;5070122;28;20044;-68
2022/04/19 02:18:32;;;;;;;19.63;8.23;;;;;;;;;;5070246;28;20047;-68
2022/04/19 02:21:38;;;;;;;13.00;7.75;;;;;;;;;;5070450;28;20047;-68
2022/04/19 02:24:42;;;;;;;16.60;8.68;;;;;;;;;;5071672;28;20047;-68
2022/04/19 02:27:46;;;;;;;13.98;8.25;;;;;;;;;;5070681;28;20048;-68
2022/04/19 02:30:55;;;;;;;21.00;9.02;;;;;;;;;;5069910;28;20404;-68
2022/04/19 02:34:06;;;;;;;13.73;8.02;;;;;;;;;;5070416;28;20055;-68
2022/04/19 02:37:13;;;;;;;15.68;8.15;;;;;;;;;;5070290;28;20075;-68
2022/04/19 02:40:19;;;;;;;13.73;7.90;;;;;;;;;;5070246;28;20039;-68
2022/04/19 02:43:23;;;;;;;16.90;8.38;;;;;;;;;;5070838;28;20043;-68
2022/04/19 02:46:29;;;;;;;22.30;8.05;;;;;;;;;;5070307;28;20047;-68
2022/04/19 02:49:39;;;;;;;22.80;9.02;;;;;;;;;;5069945;28;20079;-68
2022/04/19 02:52:44;;;;;;;20.75;8.38;;;;;;;;;;5058521;28;20040;-68
2022/04/19 02:55:49;;;;;;;15.00;9.07;;;;;;;;;;5070138;28;20052;-68
2022/04/19 02:58:53;;;;;;;17.67;7.68;;;;;;;;;;5070849;28;20055;-68
2022/04/19 03:02:00;;;;;;;15.88;7.43;;;;;;;;;;5070194;28;20055;-68
2022/04/19 03:05:05;;;;;;;13.05;7.38;;;;;;;;;;5070040;28;20035;-68
2022/04/19 03:08:09;;;;;;;11.75;7.45;;;;;;;;;;5070444;28;20063;-67
2022/04/19 03:11:15;;;;;;;16.88;7.38;;;;;;;;;;5070106;28;20531;-67
2022/04/19 03:14:21;;;;;;;13.52;7.45;;;;;;;;;;5070597;28;20044;-67
2022/04/19 03:17:25;;;;;;;21.85;7.68;;;;;;;;;;5069643;28;20043;-67
2022/04/19 03:20:30;;;;;;;10.65;6.28;;;;;;;;;;5069499;28;20055;-67
2022/04/19 03:30:24;;;;;;;13.75;6.72;;;;;;;;;;5069377;28;20063;-67
2022/04/19 03:33:28;;;;;;;14.77;6.07;;;;;;;;;;5069524;28;20044;-67
2022/04/19 03:36:33;;;;;;;11.50;6.88;;;;;;;;;;5069500;28;20039;-67
2022/04/19 03:39:38;;;;;;;13.00;6.97;;;;;;;;;;5069317;28;20044;-67
2022/04/19 03:42:43;;;;;;;10.85;7.45;;;;;;;;;;5069647;28;20039;-67
2022/04/19 03:45:47;;;;;;;16.50;7.38;;;;;;;;;;5073815;28;20044;-67
2022/04/19 03:48:51;;;;;;;14.20;8.90;;;;;;;;;;5073479;28;20519;-67
2022/04/19 03:51:56;;;;;;;11.98;7.82;;;;;;;;;;5073928;28;20052;-67
2022/04/19 03:55:00;;;;;;;18.73;7.43;;;;;;;;;;5072914;28;20067;-68
2022/04/19 03:58:05;;;;;;;11.48;6.90;;;;;;;;;;5072975;28;20599;-68
2022/04/19 04:01:09;;;;;;;18.50;6.05;;;;;;;;;;5072621;28;20515;-68
2022/04/19 04:04:14;;;;;;;11.80;5.78;;;;;;;;;;5072688;28;20048;-68
2022/04/19 04:07:18;;;;;;;11.95;6.57;;;;;;;;;;5072597;28;20051;-67
2022/04/19 04:10:23;;;;;;;9.77;6.45;;;;;;;;;;5072357;28;20055;-68
2022/04/19 04:13:27;;;;;;;19.17;6.35;;;;;;;;;;5072599;28;20040;-67
2022/04/19 04:16:32;;;;;;;11.50;6.32;;;;;;;;;;5072550;28;20048;-67
2022/04/19 04:19:36;;;;;;;18.30;6.60;;;;;;;;;;5060242;28;20044;-67
2022/04/19 04:22:40;;;;;;;18.33;6.72;;;;;;;;;;5072412;28;20535;-68
2022/04/19 04:25:45;;;;;;;17.10;6.63;;;;;;;;;;5049460;28;20055;-69
2022/04/19 04:28:53;;;;;;;28.98;8.93;;;;;;;;;;5072395;28;20214;-68
2022/04/19 04:31:57;;;;;;;23.48;7.00;;;;;;;;;;5072459;28;20048;-67
2022/04/19 04:35:02;;;;;;;13.35;7.05;;;;;;;;;;5072142;28;20040;-68
2022/04/19 04:38:06;;;;;;;12.48;6.50;;;;;;;;;;5072359;28;20412;-68
2022/04/19 04:41:10;;;;;;;20.85;6.57;;;;;;;;;;5072345;28;20047;-68
2022/04/19 04:44:15;;;;;;;14.90;6.47;;;;;;;;;;5071500;28;20051;-68
2022/04/19 04:50:43;;;;;;;21.95;6.82;;;;;;;;;;5060069;28;20075;-68
2022/04/19 04:53:49;;;;;;;11.00;6.18;;;;;;;;;;5072143;28;20377;-67
2022/04/19 04:57:00;;;;;;;14.18;7.13;;;;;;;;;;5071105;28;20051;-68
2022/04/19 05:00:05;;;;;;;24.15;6.57;;;;;;;;;;5072640;28;20044;-68
2022/04/19 05:03:26;;;;;;;18.15;6.28;;;;;;;;;;5071227;28;20047;-68
2022/04/19 05:06:31;;;;;;;21.58;6.30;;;;;;;;;;5060061;28;20051;-67
2022/04/19 05:09:35;;;;;;;9.32;5.45;;;;;;;;;;5072151;28;20538;-67
2022/04/19 05:12:41;;;;;;;12.13;6.70;;;;;;;;;;5071314;28;20041;-68
2022/04/19 05:15:46;;;;;;;12.93;5.63;;;;;;;;;;5071210;28;20047;-67
2022/04/19 05:18:51;;;;;;;13.82;6.10;;;;;;;;;;5059752;28;20373;-67
2022/04/19 05:21:56;;;;;;;16.13;6.63;;;;;;;;;;5071379;28;20542;-71
2022/04/19 05:25:02;;;;;;;15.30;6.82;;;;;;;;;;5071378;28;20045;-68
2022/04/19 05:28:06;;;;;;;22.63;7.65;;;;;;;;;;5071007;28;20043;-67
2022/04/19 05:31:11;;;;;;;16.95;7.80;;;;;;;;;;5071021;28;20056;-68
2022/04/19 05:34:15;;;;;;;17.13;6.70;;;;;;;;;;5071049;28;20404;-68
2022/04/19 05:37:20;;;;;;;18.58;6.70;;;;;;;;;;5059561;28;20392;-68
2022/04/19 05:40:24;;;;;;;23.77;6.55;;;;;;;;;;5071110;28;20043;-67
2022/04/19 05:43:29;;;;;;;28.95;6.25;;;;;;;;;;5071419;28;20500;-67
2022/04/19 05:46:36;;;;;;;20.83;5.82;;;;;;;;;;5070702;28;20405;-67
2022/04/19 05:49:40;;;;;;;25.15;6.85;;;;;;;;;;5070637;28;20063;-67
2022/04/19 05:52:45;;;;;;;46.45;11.52;;;;;;;;;;5070510;28;20048;-67
2022/04/19 05:55:54;;;;;;;30.60;17.67;;;;;;;;;;5059913;28;20066;-66
2022/04/19 05:58:58;;;;;;;34.15;17.00;;;;;;;;;;5070343;28;20496;-67
2022/04/19 06:05:27;;;;;;;15.38;7.85;;;;;;;;;;5070485;28;20047;-67
2022/04/19 06:08:32;;;;;;;17.25;7.80;;;;;;;;;;5070419;28;20527;-67
2022/04/19 06:11:43;;;;;;;14.45;6.05;;;;;;;;;;5070436;28;20048;-67
2022/04/19 06:14:49;;;;;;;10.23;4.40;;;;;;;;;;5059190;28;20051;-67
2022/04/19 06:17:55;;;;;;;7.80;4.38;;;;;;;;;;5070617;28;20043;-69
2022/04/19 06:21:19;;;;;;;7.85;4.00;;;;;;;;;;5070937;28;20483;-68
2022/04/19 06:24:24;;;;;;;11.95;4.38;;;;;;;;;;5069962;28;20036;-67
2022/04/19 06:27:29;;;;;;;9.23;4.28;;;;;;;;;;5070042;28;20407;-68
2022/04/19 06:30:34;;;;;;;9.25;4.60;;;;;;;;;;5058291;28;20489;-68
2022/04/19 06:33:38;;;;;;;17.55;4.53;;;;;;;;;;5070002;28;20045;-70
2022/04/19 06:36:44;;;;;;;13.32;4.35;;;;;;;;;;5069516;28;20044;-67
2022/04/19 06:39:49;;;;;;;29.23;7.18;;;;;;;;;;5069348;28;20047;-69
2022/04/19 06:42:57;;;;;;;15.00;5.28;;;;;;;;;;5070200;28;20051;-66
2022/04/19 06:46:08;;;;;;;15.27;5.13;;;;;;;;;;5069864;28;20396;-66
2022/04/19 06:49:12;;;;;;;20.50;5.30;;;;;;;;;;5069684;28;20072;-68
2022/04/19 06:52:16;;;;;;;15.10;5.18;;;;;;;;;;5069723;28;20051;-68
2022/04/19 06:55:21;;;;;;;16.55;4.95;;;;;;;;;;5069776;28;20048;-67
2022/04/19 06:58:25;;;;;;;15.73;5.15;;;;;;;;;;5069815;28;20047;-68
2022/04/19 07:01:29;;;;;;;13.55;4.70;;;;;;;;;;5070125;28;20048;-75
2022/04/19 07:04:52;;;;;;;18.02;6.20;;;;;;;;;;5070714;28;20043;-74
2022/04/19 07:07:56;;;;;;;36.45;6.20;;;;;;;;;;5069560;28;20052;-73
2022/04/19 07:11:01;;;;;;;10.82;5.20;;;;;;;;;;5069678;28;20051;-70
2022/04/19 07:14:25;;;;;;;11.82;4.65;;;;;;;;;;5071130;28;20055;-69
2022/04/19 07:17:49;;;;;;;24.90;4.15;;;;;;;;;;5070419;28;20052;-69
2022/04/19 07:27:43;;;;;;;8.57;3.80;;;;;;;;;;5073812;28;20436;-73
2022/04/19 07:30:48;;;;;;;8.95;3.78;;;;;;;;;;5073225;28;20052;-75
2022/04/19 07:33:55;;;;;;;23.83;4.00;;;;;;;;;;5073198;28;20037;-68
2022/04/19 07:36:59;;;;;;;9.65;3.50;;;;;;;;;;5073133;28;20071;-69
2022/04/19 07:40:04;;;;;;;9.45;3.25;;;;;;;;;;5073038;28;20048;-72
2022/04/19 07:43:08;;;;;;;13.48;3.20;;;;;;;;;;5073476;28;20044;-69
2022/04/19 07:46:16;;;;;;;15.43;3.75;;;;;;;;;;5073189;28;20063;-72
2022/04/19 07:49:21;;;;;;;10.05;3.10;;;;;;;;;;5061637;28;20047;-69
2022/04/19 07:52:26;;;;;;;13.85;3.65;;;;;;;;;;5072666;28;20476;-69
2022/04/19 07:55:30;;;;;;;9.15;3.20;;;;;;;;;;5073588;28;20051;-72
2022/04/19 07:58:35;;;;;;;9.77;3.33;;;;;;;;;;5072636;28;20036;-67
2022/04/19 08:01:39;;;;;;;10.38;3.17;;;;;;;;;;5072761;28;20052;-68
2022/04/19 08:04:44;;;;;;;8.98;3.00;;;;;;;;;;5072850;28;20051;-64
2022/04/19 08:07:49;;;;;;;18.70;3.67;;;;;;;;;;5072555;28;20492;-63
2022/04/19 08:10:54;;;;;;;9.38;3.10;;;;;;;;;;5072605;28;20447;-69
2022/04/19 08:13:58;;;;;;;29.42;4.07;;;;;;;;;;5073105;28;20041;-72
2022/04/19 08:43:06;;;;;;;29.10;4.80;;;;;;;;;;5074416;28;20040;-67
2022/04/19 08:46:10;;;;;;;11.02;4.43;;;;;;;;;;5072184;28;20055;-69
2022/04/19 08:49:17;;;;;;;15.38;4.18;;;;;;;;;;5071812;28;20048;-67
2022/04/19 08:52:21;;;;;;;11.80;3.78;;;;;;;;;;5069654;28;20071;-67
2022/04/19 08:58:48;;;;;;;13.10;2.58;;;;;;;;;;5069194;28;20047;-66
2022/04/19 09:01:53;;;;;;;8.75;2.63;;;;;;;;;;5070055;28;20047;-66
2022/04/19 09:05:17;;;;;;;20.13;3.63;;;;;;;;;;5070367;28;20036;-66
2022/04/19 09:08:21;;;;;;;14.35;3.17;;;;;;;;;;5071900;28;20412;-67
2022/04/19 09:11:34;;;;;;;15.93;3.30;;;;;;;;;;5059825;28;20051;-67
2022/04/19 09:14:54;;;;;;;13.43;3.80;;;;;;;;;;5072217;28;20051;-67
2022/04/19 09:18:00;;;;;;;15.30;3.03;;;;;;;;;;5072235;28;20046;-67
2022/04/19 09:21:05;;;;;;;11.48;2.72;;;;;;;;;;5071009;28;20454;-67
2022/04/19 09:24:17;;;;;;;11.20;2.60;;;;;;;;;;5071885;28;20043;-67
2022/04/19 09:27:32;;;;;;;12.82;2.80;;;;;;;;;;5071970;28;20064;-67
2022/04/19 09:30:37;;;;;;;6.82;2.47;;;;;;;;;;5071865;28;20055;-67
2022/04/19 09:33:41;;;;;;;17.80;6.22;;;;;;;;;;5071720;28;20045;-67
2022/04/19 09:36:45;;;;;;;9.73;2.80;;;;;;;;;;5071556;28;20051;-67
2022/04/19 09:39:53;;;;;;;6.18;3.03;;;;;;;;;;5070909;28;20346;-66
2022/04/19 09:42:58;;;;;;;13.60;2.72;;;;;;;;;;5070967;28;20382;-69
2022/04/19 09:46:03;;;;;;;13.82;3.63;;;;;;;;;;5069129;28;20047;-67
2022/04/19 09:49:07;;;;;;;10.98;2.92;;;;;;;;;;5070668;28;20240;-69
2022/04/19 09:52:13;;;;;;;10.95;2.63;;;;;;;;;;5071250;28;20393;-67
2022/04/19 09:55:18;;;;;;;10.20;2.33;;;;;;;;;;5071154;28;20067;-67
2022/04/19 09:58:23;;;;;;;26.35;4.93;;;;;;;;;;5071130;28;20063;-68
2022/04/19 10:08:20;;;;;;;20.90;3.45;;;;;;;;;;5069314;28;20060;-66
2022/04/19 10:11:26;;;;;;;10.40;2.72;;;;;;;;;;5070917;28;20051;-67
2022/04/19 10:14:31;;;;;;;10.45;2.30;;;;;;;;;;5071227;28;20392;-68
2022/04/19 10:17:39;;;;;;;11.00;2.63;;;;;;;;;;5070373;28;20052;-67
2022/04/19 10:20:46;;;;;;;8.70;2.88;;;;;;;;;;5071291;28;20039;-66
2022/04/19 10:23:50;;;;;;;8.90;2.20;;;;;;;;;;5070551;28;20049;-67
2022/04/19 10:26:55;;;;;;;12.98;3.63;;;;;;;;;;5070912;28;20045;-66
2022/04/19 10:30:01;;;;;;;8.88;2.20;;;;;;;;;;5070891;28;20412;-67
2022/04/19 10:33:25;;;;;;;18.15;3.90;;;;;;;;;;5070744;28;20044;-66
2022/04/19 10:36:33;;;;;;;10.02;3.92;;;;;;;;;;5071091;28;20384;-67
2022/04/19 10:39:44;;;;;;;12.73;2.60;;;;;;;;;;5070628;28;20051;-67
2022/04/19 10:42:48;;;;;;;6.47;2.45;;;;;;;;;;5070831;28;20052;-66
2022/04/19 10:45:53;;;;;;;8.27;1.90;;;;;;;;;;5070858;28;20369;-66
2022/04/19 10:49:16;;;;;;;10.80;2.65;;;;;;;;;;5070161;28;20036;-66
2022/04/19 10:56:12;;;;;;;10.63;2.38;;;;;;;;;;5074123;28;20055;-68
2022/04/19 10:59:22;;;;;;;7.40;2.28;;;;;;;;;;5074505;28;20118;-67
2022/04/19 11:02:35;;;;;;;10.77;3.08;;;;;;;;;;5074553;28;20036;-67
2022/04/19 11:05:43;;;;;;;6.75;2.20;;;;;;;;;;5074856;28;20515;-69
2022/04/19 11:08:49;;;;;;;7.10;2.30;;;;;;;;;;5074815;28;20048;-67
2022/04/19 11:12:09;;;;;;;5.53;1.80;;;;;;;;;;5073859;28;20044;-68
2022/04/19 11:15:14;;;;;;;6.68;2.33;;;;;;;;;;5074415;28;20036;-68
2022/04/19 11:18:22;;;;;;;11.13;2.35;;;;;;;;;;5074237;28;20040;-67
2022/04/19 11:22:02;;;;;;;17.85;2.92;;;;;;;;;;5074667;28;20048;-67
2022/04/19 11:25:07;;;;;;;9.23;2.20;;;;;;;;;;5072405;28;20051;-67
2022/04/19 11:28:11;;;;;;;6.97;1.92;;;;;;;;;;5074148;28;20045;-67
2022/04/19 11:31:15;;;;;;;8.48;2.30;;;;;;;;;;5073069;28;20052;-67
2022/04/19 11:34:20;;;;;;;6.30;2.10;;;;;;;;;;5073953;28;20040;-67
2022/04/19 11:37:25;;;;;;;8.57;2.08;;;;;;;;;;5073932;28;20045;-68
2022/04/19 11:47:15;;;;;;;6.38;2.15;;;;;;;;;;5073850;28;20040;-67
2022/04/19 11:50:27;;;;;;;8.77;1.98;;;;;;;;;;5073802;28;20056;-67
2022/04/19 11:53:32;;;;;;;7.25;2.00;;;;;;;;;;5073613;28;20029;-69
2022/04/19 11:56:37;;;;;;;10.73;2.30;;;;;;;;;;5073777;28;20025;-68
2022/04/19 11:59:42;;;;;;;17.75;2.47;;;;;;;;;;5073643;28;20047;-68
2022/04/19 12:02:50;;;;;;;8.32;2.83;;;;;;;;;;5074027;28;20039;-69
2022/04/19 12:06:04;;;;;;;17.15;2.17;;;;;;;;;;5073240;28;20041;-69
2022/04/19 12:09:12;;;;;;;10.75;2.03;;;;;;;;;;5073873;28;20404;-69
2022/04/19 12:12:19;;;;;;;9.75;2.30;;;;;;;;;;5061351;28;20499;-69
2022/04/19 12:15:40;;;;;;;13.15;2.22;;;;;;;;;;5073775;28;20048;-67
2022/04/19 12:18:44;;;;;;;5.35;2.20;;;;;;;;;;5073254;28;20495;-69
2022/04/19 12:21:48;;;;;;;10.95;2.17;;;;;;;;;;5073741;28;20036;-68
2022/04/19 12:24:55;;;;;;;14.25;2.83;;;;;;;;;;5073325;28;20044;-69
2022/04/19 12:28:00;;;;;;;8.27;2.58;;;;;;;;;;5073364;28;20047;-67
2022/04/19 12:31:05;;;;;;;8.95;1.98;;;;;;;;;;5073043;28;20052;-68
2022/04/19 12:34:11;;;;;;;7.65;2.08;;;;;;;;;;5073565;28;20531;-68
2022/04/19 12:37:21;;;;;;;6.43;1.92;;;;;;;;;;5073296;28;20049;-68
2022/04/19 12:40:28;;;;;;;6.47;2.05;;;;;;;;;;5072918;28;20509;-67
2022/04/19 12:43:42;;;;;;;10.30;2.33;;;;;;;;;;5073753;28;20037;-67
2022/04/19 12:46:49;;;;;;;7.63;1.98;;;;;;;;;;5073116;28;20047;-67
2022/04/19 12:49:55;;;;;;;11.20;1.85;;;;;;;;;;5072303;28;20036;-67
2022/04/19 12:53:02;;;;;;;7.57;2.00;;;;;;;;;;5071863;28;20047;-68
2022/04/19 12:56:10;;;;;;;7.25;2.00;;;;;;;;;;5071719;28;20041;-68
2022/04/19 12:59:15;;;;;;;11.15;3.15;;;;;;;;;;5072143;28;20036;-70
2022/04/19 13:02:20;;;;;;;42.42;5.43;;;;;;;;;;5072198;28;20052;-68
2022/04/19 13:12:16;;;;;;;13.73;2.60;;;;;;;;;;5072593;28;20044;-67
2022/04/19 13:12:17;;;;;;;7.95;1.95;;;;;;;;;;5072543;28;20500;-67
2022/04/19 13:15:22;;;;;;;6.47;2.03;;;;;;;;;;5072413;28;20036;-68
2022/04/19 13:18:27;;;;;;;9.27;3.20;;;;;;;;;;5072136;28;20074;-68
2022/04/19 13:21:31;;;;;;;14.75;2.50;;;;;;;;;;5072470;28;20504;-67
2022/04/19 13:24:39;;;;;;;7.93;2.25;;;;;;;;;;5072122;28;20043;-67
2022/04/19 13:27:43;;;;;;;6.38;2.08;;;;;;;;;;5072191;28;20041;-67
2022/04/19 13:30:48;;;;;;;12.20;2.55;;;;;;;;;;5059547;28;20048;-68
2022/04/19 13:33:52;;;;;;;12.48;3.10;;;;;;;;;;5072564;28;20048;-67
2022/04/19 13:36:57;;;;;;;14.85;2.30;;;;;;;;;;5071731;28;20036;-69
2022/04/19 13:40:01;;;;;;;9.10;2.35;;;;;;;;;;5071844;28;20039;-67
2022/04/19 13:43:05;;;;;;;7.15;2.17;;;;;;;;;;5071932;28;20041;-69
2022/04/19 13:46:10;;;;;;;14.60;2.60;;;;;;;;;;5071955;28;20048;-68
2022/04/19 13:49:15;;;;;;;14.10;2.60;;;;;;;;;;5071424;28;20507;-68
2022/04/19 13:52:19;;;;;;;12.18;2.55;;;;;;;;;;5071366;28;20055;-66
2022/04/19 13:55:24;;;;;;;11.95;2.58;;;;;;;;;;5071821;28;20039;-67
2022/04/19 13:58:28;;;;;;;12.05;2.67;;;;;;;;;;5071372;28;20055;-67
2022/04/19 14:01:33;;;;;;;9.85;2.10;;;;;;;;;;5071160;28;20055;-67
2022/04/19 14:04:37;;;;;;;10.70;2.15;;;;;;;;;;5071193;28;20036;-69
2022/04/19 14:07:41;;;;;;;10.95;2.80;;;;;;;;;;5071183;28;20051;-67
2022/04/19 14:10:47;;;;;;;13.30;2.40;;;;;;;;;;5071017;28;20059;-69
2022/04/19 14:13:51;;;;;;;15.65;3.13;;;;;;;;;;5071377;28;20035;-67
2022/04/19 14:16:55;;;;;;;11.95;2.53;;;;;;;;;;5071443;28;20044;-67
2022/04/19 14:19:59;;;;;;;9.63;2.22;;;;;;;;;;5071161;28;20047;-69
2022/04/19 14:23:04;;;;;;;12.25;2.70;;;;;;;;;;5071451;28;20040;-66
2022/04/19 14:26:08;;;;;;;8.68;2.00;;;;;;;;;;5071054;28;20283;-68
2022/04/19 14:35:58;;;;;;;11.23;3.00;;;;;;;;;;5070728;28;20043;-67
2022/04/19 14:39:03;;;;;;;14.77;2.40;;;;;;;;;;5070814;28;20048;-66
2022/04/19 14:42:07;;;;;;;16.58;2.53;;;;;;;;;;5070781;28;20067;-68
2022/04/19 14:45:13;;;;;;;8.75;2.35;;;;;;;;;;5070677;28;20048;-70
2022/04/19 14:48:17;;;;;;;12.30;2.78;;;;;;;;;;5070951;28;20036;-70
2022/04/19 14:54:45;;;;;;;12.57;2.25;;;;;;;;;;5070809;28;20397;-73
2022/04/19 14:57:49;;;;;;;8.82;2.13;;;;;;;;;;5069875;28;20051;-70
2022/04/19 15:00:53;;;;;;;25.90;3.13;;;;;;;;;;5070732;28;20500;-74
2022/04/19 15:03:57;;;;;;;20.45;2.92;;;;;;;;;;5069845;28;20047;-76
2022/04/19 15:07:01;;;;;;;16.48;2.58;;;;;;;;;;5070629;28;20051;-70
2022/04/19 15:10:06;;;;;;;13.68;3.35;;;;;;;;;;5070698;28;20056;-70
2022/04/19 15:13:10;;;;;;;10.18;2.20;;;;;;;;;;5070583;28;20385;-71
2022/04/19 15:16:15;;;;;;;18.10;2.72;;;;;;;;;;5070491;28;20055;-72
2022/04/19 15:19:19;;;;;;;8.52;2.15;;;;;;;;;;5070256;28;20522;-73
2022/04/19 15:22:24;;;;;;;11.15;2.80;;;;;;;;;;5070137;28;20032;-74
2022/04/19 15:25:28;;;;;;;10.98;2.90;;;;;;;;;;5070072;28;20051;-72
2022/04/19 15:28:32;;;;;;;7.93;2.70;;;;;;;;;;5069957;28;20043;-74
2022/04/19 15:31:37;;;;;;;14.45;2.88;;;;;;;;;;5069899;28;20044;-72
2022/04/19 15:34:41;;;;;;;11.38;2.15;;;;;;;;;;5070386;28;20361;-74
2022/04/19 15:37:45;;;;;;;7.85;2.30;;;;;;;;;;5070137;28;20504;-75
2022/04/19 15:40:49;;;;;;;11.82;2.33;;;;;;;;;;5073022;28;20040;-72
2022/04/19 15:43:54;;;;;;;11.63;1.95;;;;;;;;;;5073910;28;20055;-72
2022/04/19 15:46:58;;;;;;;10.35;2.80;;;;;;;;;;5073560;28;20043;-72
2022/04/19 15:50:03;;;;;;;8.25;1.98;;;;;;;;;;5073763;28;20055;-71
2022/04/19 15:53:07;;;;;;;10.35;1.98;;;;;;;;;;5073995;28;20049;-69
2022/04/19 15:56:11;;;;;;;9.35;2.10;;;;;;;;;;5073659;28;20384;-72
2022/04/19 15:59:15;;;;;;;9.40;2.40;;;;;;;;;;5073597;28;20040;-73
2022/04/19 16:02:21;;;;;;;13.82;2.63;;;;;;;;;;5073544;28;20044;-68
2022/04/19 16:05:25;;;;;;;8.52;2.17;;;;;;;;;;5073185;28;20044;-71
2022/04/19 16:08:30;;;;;;;10.98;2.33;;;;;;;;;;5072818;28;20492;-68
2022/04/19 16:11:34;;;;;;;6.95;1.98;;;;;;;;;;5072192;28;20051;-70
2022/04/19 16:14:38;;;;;;;17.92;2.50;;;;;;;;;;5072160;28;20096;-70
2022/04/19 16:24:49;;;;;;;5.38;1.83;;;;;;;;;;5070707;28;20040;-70
2022/04/19 16:27:54;;;;;;;9.65;2.17;;;;;;;;;;5070205;28;20036;-71
2022/04/19 16:30:59;;;;;;;5.72;2.40;;;;;;;;;;5072783;28;20505;-71
2022/04/19 16:34:04;;;;;;;7.95;2.50;;;;;;;;;;5072757;28;20028;-73
2022/04/19 16:37:10;;;;;;;11.85;2.55;;;;;;;;;;5072713;28;20041;-72
2022/04/19 16:40:15;;;;;;;9.32;2.63;;;;;;;;;;5072719;28;20052;-70
2022/04/19 16:43:19;;;;;;;11.80;2.85;;;;;;;;;;5072660;28;20041;-70
2022/04/19 16:46:24;;;;;;;11.07;2.00;;;;;;;;;;5072834;28;20040;-73
2022/04/19 16:49:28;;;;;;;6.53;2.80;;;;;;;;;;5072455;28;20063;-72
2022/04/19 16:52:32;;;;;;;8.93;2.50;;;;;;;;;;5072424;28;20476;-69
2022/04/19 16:55:38;;;;;;;10.73;2.38;;;;;;;;;;5072221;28;20044;-69
2022/04/19 16:58:42;;;;;;;9.02;2.33;;;;;;;;;;5072052;28;20047;-72
2022/04/19 17:01:47;;;;;;;8.63;2.55;;;;;;;;;;5071512;28;20041;-69
2022/04/19 17:04:54;;;;;;;11.65;2.88;;;;;;;;;;5072131;28;20386;-73
2022/04/19 17:07:59;;;;;;;9.65;2.38;;;;;;;;;;5071601;28;20660;-70
2022/04/19 17:11:03;;;;;;;8.05;2.40;;;;;;;;;;5072333;28;20052;-69
2022/04/19 17:14:08;;;;;;;7.55;2.30;;;;;;;;;;5072138;28;20037;-76
2022/04/19 17:17:12;;;;;;;9.60;2.60;;;;;;;;;;5071860;28;20040;-73
2022/04/19 17:20:17;;;;;;;11.90;3.00;;;;;;;;;;5071117;28;20033;-71
2022/04/19 17:23:21;;;;;;;9.07;2.50;;;;;;;;;;5072090;28;20059;-70
2022/04/19 17:26:29;;;;;;;14.40;3.17;;;;;;;;;;5071377;28;20041;-71
2022/04/19 17:29:38;;;;;;;16.70;3.10;;;;;;;;;;5071587;28;20043;-70
2022/04/19 17:32:42;;;;;;;9.60;2.38;;;;;;;;;;5070485;28;20047;-72
2022/04/19 17:35:46;;;;;;;14.27;2.50;;;;;;;;;;5071795;28;20041;-73
2022/04/19 17:38:51;;;;;;;15.63;5.68;;;;;;;;;;5071327;28;20043;-71
2022/04/19 17:41:55;;;;;;;11.75;2.88;;;;;;;;;;5070892;28;20044;-72
2022/04/19 17:44:59;;;;;;;11.80;4.57;;;;;;;;;;5071434;28;20067;-73
2022/04/19 17:48:04;;;;;;;9.85;3.00;;;;;;;;;;5071245;28;20039;-72
2022/04/19 17:57:54;;;;;;;11.55;4.70;;;;;;;;;;5070906;28;20048;-72
2022/04/19 18:00:58;;;;;;;14.65;4.68;;;;;;;;;;5071349;28;20503;-72
2022/04/19 18:04:02;;;;;;;25.88;9.60;;;;;;;;;;5070688;28;20042;-72
2022/04/19 18:07:11;;;;;;;9.85;3.28;;;;;;;;;;5070887;28;20055;-73
2022/04/19 18:10:15;;;;;;;7.20;3.45;;;;;;;;;;5070152;28;20040;-72
2022/04/19 18:13:20;;;;;;;7.22;3.13;;;;;;;;;;5070935;28;20149;-72
2022/04/19 18:16:24;;;;;;;15.25;4.30;;;;;;;;;;5070776;28;20044;-72
2022/04/19 18:19:30;;;;;;;9.82;3.55;;;;;;;;;;5069867;28;20039;-73
2022/04/19 18:25:58;;;;;;;10.00;3.17;;;;;;;;;;5068710;28;20039;-72
2022/04/19 18:29:02;;;;;;;10.73;3.03;;;;;;;;;;5070263;28;20051;-71
2022/04/19 18:32:06;;;;;;;11.68;3.20;;;;;;;;;;5070609;28;20055;-72
2022/04/19 18:35:11;;;;;;;6.63;3.40;;;;;;;;;;5070925;28;20044;-72
2022/04/19 18:38:15;;;;;;;11.50;3.53;;;;;;;;;;5070571;28;20040;-73
2022/04/19 18:41:20;;;;;;;12.30;4.00;;;;;;;;;;5070817;28;20048;-74
2022/04/19 18:44:24;;;;;;;11.18;4.70;;;;;;;;;;5071104;28;20376;-72
2022/04/19 18:47:29;;;;;;;15.27;4.13;;;;;;;;;;5070843;28;20051;-72
2022/04/19 18:50:34;;;;;;;12.50;4.53;;;;;;;;;;5058278;28;20135;-73
2022/04/19 18:53:39;;;;;;;10.98;4.40;;;;;;;;;;5070482;28;20059;-73
2022/04/19 18:56:43;;;;;;;10.30;3.97;;;;;;;;;;5070493;28;20396;-73
2022/04/19 18:59:48;;;;;;;13.25;4.43;;;;;;;;;;5070064;28;20047;-73
2022/04/19 19:02:53;;;;;;;14.18;4.30;;;;;;;;;;5070001;28;20043;-72
2022/04/19 19:05:57;;;;;;;21.73;5.03;;;;;;;;;;5070812;28;20051;-73
2022/04/19 19:09:02;;;;;;;17.20;6.45;;;;;;;;;;5070273;28;20393;-73
2022/04/19 19:12:08;;;;;;;19.10;8.95;;;;;;;;;;5068871;28;20047;-72
2022/04/19 19:15:13;;;;;;;15.70;5.47;;;;;;;;;;5071982;28;20055;-73
2022/04/19 19:18:17;;;;;;;17.20;4.85;;;;;;;;;;5072840;28;20408;-72
2022/04/19 19:21:21;;;;;;;9.18;4.35;;;;;;;;;;5074236;28;20048;-72
2022/04/19 19:24:25;;;;;;;11.20;4.50;;;;;;;;;;5074455;28;20040;-72
2022/04/19 19:27:30;;;;;;;7.28;3.67;;;;;;;;;;5073485;28;20044;-73
2022/04/19 19:30:34;;;;;;;18.30;5.35;;;;;;;;;;5074127;28;20040;-72
2022/04/19 19:33:38;;;;;;;18.27;5.00;;;;;;;;;;5073023;28;20098;-71
2022/04/19 19:36:44;;;;;;;7.53;4.75;;;;;;;;;;5073113;28;20503;-72
2022/04/19 19:39:48;;;;;;;15.65;4.05;;;;;;;;;;5074024;28;20488;-73
2022/04/19 19:42:53;;;;;;;21.13;5.97;;;;;;;;;;5074037;28;20123;-72
2022/04/19 19:45:58;;;;;;;17.08;6.47;;;;;;;;;;5074399;28;20055;-73
2022/04/19 19:49:02;;;;;;;18.50;6.38;;;;;;;;;;5074021;28;20048;-73
2022/04/19 19:52:07;;;;;;;12.63;5.22;;;;;;;;;;5073747;28;20055;-73
2022/04/19 19:55:11;;;;;;;11.55;4.95;;;;;;;;;;5074901;28;20040;-72
2022/04/19 19:58:15;;;;;;;14.20;5.22;;;;;;;;;;5073656;28;20492;-72
2022/04/19 20:01:19;;;;;;;13.07;5.55;;;;;;;;;;5072831;28;20060;-71
2022/04/19 20:04:24;;;;;;;16.35;4.85;;;;;;;;;;5073619;28;20035;-72
2022/04/19 20:07:28;;;;;;;16.20;4.50;;;;;;;;;;5073282;28;20440;-72